Time;durP1;ratioP1;P1;durP2;ratioP2;P2;SDS_P1;SDS_P2;PMS_P1;PMS_P2;Temp;Humidity;BMP_temperature;BMP_pressure;BME280_temperature;BME280_humidity;BME280_pressure;Samples;Min_cycle;Max_cycle;Signal;HPM_P1;HPM_P2
2023/04/21 00:00:17;;;;;;;0.20;0.20;;;8.70;99.90;;;;;;6210990;23;20019;-78
2023/04/21 00:02:48;;;;;;;0.20;0.20;;;8.60;99.90;;;;;;6232781;22;20393;-77
2023/04/21 00:05:14;;;;;;;0.17;0.17;;;9.10;99.90;;;;;;6272109;22;20448;-76
2023/04/21 00:07:49;;;;;;;0.20;0.20;;;8.60;99.90;;;;;;6245996;22;20023;-77
2023/04/21 00:10:30;;;;;;;0.20;0.20;;;9.10;99.90;;;;;;6248328;22;20023;-77
2023/04/21 00:12:56;;;;;;;0.13;0.13;;;8.50;99.90;;;;;;6270928;22;20030;-78
2023/04/21 00:15:40;;;;;;;0.20;0.20;;;8.60;99.90;;;;;;6240704;22;20352;-77
2023/04/21 00:18:12;;;;;;;0.20;0.20;;;9.20;99.90;;;;;;6271924;22;20015;-77
2023/04/21 00:20:38;;;;;;;0.20;0.20;;;8.70;99.90;;;;;;6272301;22;20016;-78
2023/04/21 00:26:54;;;;;;;0.15;0.15;;;9.10;99.90;;;;;;6239634;22;20020;-77
2023/04/21 00:29:23;;;;;;;0.10;0.10;;;8.90;99.90;;;;;;6214082;23;20379;-77
2023/04/21 00:32:13;;;;;;;0.20;0.20;;;9.20;99.90;;;;;;6243269;23;20024;-77
2023/04/21 00:34:39;;;;;;;0.20;0.20;;;8.40;99.90;;;;;;6242942;23;20472;-77
2023/04/21 00:37:24;;;;;;;0.20;0.20;;;8.80;99.90;;;;;;6244057;23;20012;-76
2023/04/21 00:39:50;;;;;;;0.10;0.10;;;8.40;99.90;;;;;;6242293;23;20387;-77
2023/04/21 00:42:16;;;;;;;0.20;0.20;;;8.30;99.90;;;;;;6242514;23;20318;-77
2023/04/21 00:45:06;;;;;;;0.13;0.13;;;8.30;99.90;;;;;;6242585;23;20019;-77
2023/04/21 00:47:32;;;;;;;0.20;0.20;;;8.30;99.90;;;;;;6267825;22;20153;-77
2023/04/21 00:49:58;;;;;;;0.20;0.20;;;8.30;99.90;;;;;;6283527;22;20020;-77
2023/04/21 00:55:59;;;;;;;0.20;0.20;;;8.10;99.90;;;;;;6272205;22;20027;-77
2023/04/21 00:58:25;;;;;;;0.20;0.20;;;8.90;99.90;;;;;;6274073;22;20015;-77
2023/04/21 01:00:51;;;;;;;0.32;0.32;;;8.20;99.90;;;;;;6275582;22;20073;-77
2023/04/21 01:03:17;;;;;;;0.20;0.20;;;8.30;99.90;;;;;;6302618;22;20050;-77
2023/04/21 01:05:57;;;;;;;0.10;0.10;;;8.20;99.90;;;;;;6275970;22;20019;-78
2023/04/21 01:08:26;;;;;;;0.20;0.20;;;8.20;99.90;;;;;;6276580;22;20026;-77
2023/04/21 01:11:23;;;;;;;0.20;0.20;;;8.20;99.90;;;;;;6273865;22;20588;-77
2023/04/21 01:13:55;;;;;;;0.20;0.20;;;8.10;99.90;;;;;;6168065;22;20654;-77
2023/04/21 01:16:33;;;;;;;0.20;0.20;;;8.70;99.90;;;;;;6273160;22;20073;-77
2023/04/21 01:19:46;;;;;;;0.20;0.20;;;7.80;99.90;;;;;;6276649;22;20019;-76
2023/04/21 01:22:31;;;;;;;0.20;0.20;;;8.10;99.90;;;;;;6179876;23;20021;-77
2023/04/21 01:25:24;;;;;;;0.20;0.20;;;8.00;99.90;;;;;;6177488;23;20020;-78
2023/04/21 01:27:51;;;;;;;0.20;0.20;;;8.00;99.90;;;;;;6181952;23;20058;-76
2023/04/21 01:30:18;;;;;;;0.13;0.13;;;8.50;99.90;;;;;;6184809;23;20025;-78
2023/04/21 01:32:59;;;;;;;0.20;0.20;;;8.10;99.90;;;;;;6153717;23;20013;-78
2023/04/21 01:35:25;;;;;;;0.20;0.20;;;8.10;99.90;;;;;;6276718;22;20015;-77
2023/04/21 01:37:50;;;;;;;0.20;0.20;;;8.70;99.90;;;;;;6272427;22;20341;-77
2023/04/21 01:40:16;;;;;;;0.20;0.20;;;8.00;99.90;;;;;;6273992;22;20030;-78
2023/04/21 01:42:42;;;;;;;0.20;0.20;;;8.00;99.90;;;;;;6303886;22;20011;-77
2023/04/21 01:45:09;;;;;;;0.20;0.20;;;8.00;99.90;;;;;;6274942;22;20487;-79
2023/04/21 01:47:35;;;;;;;0.20;0.20;;;8.00;99.90;;;;;;6304689;22;20395;-77
2023/04/21 01:50:09;;;;;;;0.20;0.20;;;8.00;99.90;;;;;;6274955;22;20030;-78
2023/04/21 01:52:35;;;;;;;0.20;0.20;;;8.00;99.90;;;;;;6276303;22;20300;-78
2023/04/21 01:55:01;;;;;;;0.20;0.20;;;8.00;99.90;;;;;;6275560;22;20327;-77
2023/04/21 01:57:30;;;;;;;0.17;0.17;;;7.90;99.90;;;;;;6275958;22;20094;-78
2023/04/21 02:00:05;;;;;;;0.20;0.20;;;7.90;99.90;;;;;;6275157;22;20015;-79
2023/04/21 02:02:31;;;;;;;0.20;0.20;;;7.90;99.90;;;;;;6276702;22;20011;-78
2023/04/21 02:04:57;;;;;;;0.20;0.20;;;7.90;99.90;;;;;;6303719;22;20565;-79
2023/04/21 02:07:22;;;;;;;0.20;0.20;;;7.90;99.90;;;;;;6278186;22;20069;-78
2023/04/21 02:09:48;;;;;;;0.20;0.20;;;7.90;99.90;;;;;;6289601;22;20046;-78
2023/04/21 02:12:13;;;;;;;0.20;0.20;;;7.90;99.90;;;;;;6304891;22;20027;-78
2023/04/21 02:14:39;;;;;;;0.20;0.20;;;7.90;99.90;;;;;;6302507;22;20018;-78
2023/04/21 02:17:08;;;;;;;0.20;0.20;;;7.90;99.90;;;;;;6276663;22;20016;-78
2023/04/21 02:19:33;;;;;;;0.17;0.17;;;7.90;99.90;;;;;;6277103;22;20038;-77
2023/04/21 02:22:24;;;;;;;0.20;0.20;;;7.80;99.90;;;;;;6261563;22;20012;-78
2023/04/21 02:28:21;;;;;;;0.15;0.15;;;7.80;99.90;;;;;;6243037;23;20027;-79
2023/04/21 02:30:49;;;;;;;0.20;0.20;;;7.80;99.90;;;;;;6216670;23;20020;-79
2023/04/21 02:33:17;;;;;;;0.17;0.17;;;7.80;99.90;;;;;;6259437;23;20110;-78
2023/04/21 02:35:49;;;;;;;0.20;0.20;;;7.90;99.90;;;;;;6217153;23;20024;-78
2023/04/21 02:38:29;;;;;;;0.20;0.20;;;7.80;99.90;;;;;;6214079;23;20052;-77
2023/04/21 02:41:01;;;;;;;0.10;0.10;;;7.90;99.90;;;;;;6215334;23;20121;-77
2023/04/21 02:43:30;;;;;;;0.17;0.17;;;7.90;99.90;;;;;;6241789;23;20019;-78
2023/04/21 02:45:56;;;;;;;0.20;0.20;;;;;;;;;;6215349;23;20024;-78
2023/04/21 02:48:25;;;;;;;0.20;0.20;;;7.80;99.90;;;;;;6251298;23;20027;-78
2023/04/21 02:51:28;;;;;;;0.20;0.20;;;8.20;99.90;;;;;;6249428;23;20067;-79
2023/04/21 02:53:54;;;;;;;0.13;0.13;;;7.80;99.90;;;;;;6244160;23;20020;-78
2023/04/21 02:56:30;;;;;;;0.20;0.20;;;7.60;99.90;;;;;;6215008;23;20027;-78
2023/04/21 02:58:56;;;;;;;0.20;0.20;;;7.80;99.90;;;;;;6214379;23;20344;-78
2023/04/21 03:01:35;;;;;;;0.20;0.20;;;7.30;99.90;;;;;;6242944;23;20016;-77
2023/04/21 03:04:24;;;;;;;0.20;0.20;;;8.20;99.90;;;;;;6215514;23;20056;-78
2023/04/21 03:06:53;;;;;;;0.20;0.20;;;7.70;99.90;;;;;;6217578;23;20087;-77
2023/04/21 03:09:45;;;;;;;0.20;0.20;;;7.70;99.90;;;;;;6215074;23;20020;-77
2023/04/21 03:12:42;;;;;;;0.20;0.20;;;8.30;99.90;;;;;;6215366;23;20024;-77
2023/04/21 03:15:32;;;;;;;0.20;0.20;;;7.70;99.90;;;;;;6214586;23;20016;-78
2023/04/21 03:18:04;;;;;;;0.20;0.20;;;7.70;99.90;;;;;;6242057;23;20035;-77
2023/04/21 03:20:31;;;;;;;0.20;0.20;;;7.70;99.90;;;;;;6242235;23;20486;-78
2023/04/21 03:22:56;;;;;;;0.20;0.20;;;8.50;99.90;;;;;;6215360;23;20310;-78
2023/04/21 03:25:22;;;;;;;0.20;0.20;;;8.50;99.90;;;;;;6243058;23;20022;-80
2023/04/21 03:28:18;;;;;;;0.20;0.20;;;7.70;99.90;;;;;;6220397;23;20022;-79
2023/04/21 03:30:43;;;;;;;0.20;0.20;;;7.70;99.90;;;;;;6256057;22;20026;-78
2023/04/21 03:33:09;;;;;;;0.20;0.20;;;8.40;99.90;;;;;;6246114;22;20019;-78
2023/04/21 03:35:53;;;;;;;0.20;0.20;;;7.80;99.90;;;;;;6246071;22;20019;-78
2023/04/21 03:38:28;;;;;;;0.20;0.20;;;7.80;99.90;;;;;;6273137;22;20051;-78
2023/04/21 03:40:54;;;;;;;0.20;0.20;;;7.70;99.90;;;;;;6245226;22;20491;-79
2023/04/21 03:43:41;;;;;;;0.20;0.20;;;7.70;99.90;;;;;;6271763;22;20085;-78
2023/04/21 03:46:27;;;;;;;0.20;0.20;;;7.40;99.90;;;;;;6245158;22;20398;-79
2023/04/21 03:48:56;;;;;;;0.17;0.17;;;8.80;99.90;;;;;;6244265;22;20427;-79
2023/04/21 03:51:22;;;;;;;0.20;0.20;;;;;;;;;;6272178;22;20082;-79
2023/04/21 03:53:47;;;;;;;0.20;0.20;;;7.80;99.90;;;;;;6247222;22;20027;-79
2023/04/21 03:56:22;;;;;;;0.20;0.20;;;7.50;99.90;;;;;;6274157;22;20020;-79
2023/04/21 03:59:03;;;;;;;0.20;0.20;;;8.60;99.90;;;;;;6273203;22;20039;-78
2023/04/21 04:01:28;;;;;;;0.20;0.20;;;7.80;99.90;;;;;;6246452;22;20514;-78
2023/04/21 04:07:25;;;;;;;0.10;0.10;;;8.60;99.90;;;;;;6247440;22;20110;-78
2023/04/21 04:09:52;;;;;;;0.20;0.20;;;8.00;99.90;;;;;;6253751;22;20568;-78
2023/04/21 04:12:21;;;;;;;0.20;0.20;;;7.90;99.90;;;;;;6245288;22;20051;-78
2023/04/21 04:14:53;;;;;;;0.20;0.20;;;8.20;99.90;;;;;;6270933;22;20403;-78
2023/04/21 04:17:18;;;;;;;0.10;0.10;;;8.40;99.90;;;;;;6287517;22;20026;-78
2023/04/21 04:19:44;;;;;;;0.10;0.10;;;7.40;99.90;;;;;;6279014;22;20023;-80
2023/04/21 04:22:10;;;;;;;0.20;0.20;;;8.00;99.90;;;;;;6248015;22;20321;-79
2023/04/21 04:24:38;;;;;;;0.20;0.20;;;7.90;99.90;;;;;;6272944;22;20344;-78
2023/04/21 04:27:04;;;;;;;0.20;0.20;;;7.90;99.90;;;;;;6244933;22;20016;-79
2023/04/21 04:29:33;;;;;;;0.20;0.20;;;7.90;99.90;;;;;;6244134;22;20073;-78
2023/04/21 04:32:00;;;;;;;0.20;0.20;;;7.90;99.90;;;;;;6244671;22;20511;-79
2023/04/21 04:34:26;;;;;;;0.20;0.20;;;7.90;99.90;;;;;;6245049;22;20011;-78
2023/04/21 04:36:52;;;;;;;0.20;0.20;;;8.00;99.90;;;;;;6246384;22;20020;-78
2023/04/21 04:39:18;;;;;;;0.20;0.20;;;7.90;99.90;;;;;;6245869;22;20019;-78
2023/04/21 04:41:43;;;;;;;0.20;0.20;;;7.60;99.90;;;;;;6245263;22;20440;-78
2023/04/21 04:44:10;;;;;;;0.20;0.20;;;8.00;99.90;;;;;;6271190;22;20039;-78
2023/04/21 04:46:35;;;;;;;0.20;0.20;;;8.00;99.90;;;;;;6246619;22;20316;-78
2023/04/21 04:49:01;;;;;;;0.20;0.20;;;8.00;99.90;;;;;;6290294;22;20015;-79
2023/04/21 04:51:27;;;;;;;0.20;0.20;;;8.00;99.90;;;;;;6246254;22;20054;-78
2023/04/21 04:53:53;;;;;;;0.20;0.20;;;8.00;99.90;;;;;;6273652;22;20015;-78
2023/04/21 04:56:19;;;;;;;0.20;0.20;;;8.10;99.90;;;;;;6245765;22;20453;-78
2023/04/21 04:58:47;;;;;;;0.20;0.20;;;8.10;99.90;;;;;;6246303;22;20023;-79
2023/04/21 05:01:16;;;;;;;0.20;0.20;;;8.10;99.90;;;;;;6244726;22;20019;-79
2023/04/21 05:03:44;;;;;;;0.20;0.20;;;8.10;99.90;;;;;;6271450;22;20090;-79
2023/04/21 05:06:10;;;;;;;0.20;0.20;;;8.10;99.90;;;;;;6272982;22;20007;-78
2023/04/21 05:08:35;;;;;;;0.20;0.20;;;8.20;99.90;;;;;;6270712;22;20509;-78
2023/04/21 05:11:02;;;;;;;0.20;0.20;;;8.10;99.90;;;;;;6244941;22;20016;-78
2023/04/21 05:13:30;;;;;;;0.20;0.20;;;8.20;99.90;;;;;;6270936;22;20023;-81
2023/04/21 05:16:00;;;;;;;0.20;0.20;;;8.20;99.90;;;;;;6270941;22;20012;-82
2023/04/21 05:18:29;;;;;;;0.20;0.20;;;8.60;99.90;;;;;;6245329;22;20016;-78
2023/04/21 05:20:55;;;;;;;0.20;0.20;;;8.30;99.90;;;;;;6273154;22;20368;-79
2023/04/21 05:23:21;;;;;;;0.20;0.20;;;8.30;99.90;;;;;;6245697;22;20015;-79
2023/04/21 05:25:47;;;;;;;0.20;0.20;;;8.40;99.90;;;;;;6245926;22;20016;-86
2023/04/21 05:28:15;;;;;;;0.20;0.20;;;8.40;99.90;;;;;;6284752;22;20050;-92
2023/04/21 05:30:41;;;;;;;0.20;0.20;;;8.40;99.90;;;;;;6251474;22;20016;-85
2023/04/21 05:33:08;;;;;;;0.20;0.20;;;8.80;99.90;;;;;;6262167;22;20065;-85
2023/04/21 05:35:35;;;;;;;0.20;0.20;;;8.60;99.90;;;;;;6275215;22;20016;-87
2023/04/21 05:38:01;;;;;;;0.20;0.20;;;9.00;99.90;;;;;;6271784;22;20046;-87
2023/04/21 05:40:39;;;;;;;0.20;0.20;;;8.90;99.90;;;;;;6216371;22;20226;-87
2023/04/21 05:43:04;;;;;;;0.10;0.10;;;8.80;99.90;;;;;;6210348;23;20016;-88
2023/04/21 05:45:47;;;;;;;0.10;0.10;;;8.90;99.90;;;;;;6210972;23;20009;-88
2023/04/21 05:48:18;;;;;;;0.20;0.20;;;8.80;99.90;;;;;;6211806;23;20393;-88
2023/04/21 05:50:50;;;;;;;0.15;0.15;;;9.10;99.90;;;;;;6209307;22;20323;-85
2023/04/21 05:54:17;;;;;;;0.20;0.20;;;9.00;99.90;;;;;;6211545;23;20418;-86
2023/04/21 05:57:11;;;;;;;0.20;0.20;;;8.90;99.90;;;;;;6210666;23;20013;-83
2023/04/21 05:59:58;;;;;;;0.20;0.20;;;9.10;99.90;;;;;;6209239;23;20063;-85
2023/04/21 06:02:38;;;;;;;0.20;0.20;;;9.00;99.90;;;;;;6224186;23;20035;-85
2023/04/21 06:05:04;;;;;;;0.20;0.20;;;9.20;99.90;;;;;;6235132;23;19997;-85
2023/04/21 06:07:40;;;;;;;0.20;0.20;;;9.20;99.90;;;;;;6233204;23;20021;-85
2023/04/21 06:10:37;;;;;;;0.20;0.20;;;9.30;99.90;;;;;;6219940;23;20009;-86
2023/04/21 06:13:08;;;;;;;0.15;0.15;;;8.80;99.90;;;;;;6210514;23;20063;-86
2023/04/21 06:15:43;;;;;;;0.20;0.20;;;9.30;99.90;;;;;;6209413;23;20516;-84
2023/04/21 06:18:42;;;;;;;0.10;0.10;;;9.40;99.90;;;;;;6214679;23;20051;-85
2023/04/21 06:21:11;;;;;;;0.20;0.20;;;9.40;99.90;;;;;;6213895;23;20017;-85
2023/04/21 06:23:49;;;;;;;0.20;0.20;;;9.50;99.90;;;;;;6213024;23;20019;-86
2023/04/21 06:27:06;;;;;;;0.20;0.20;;;9.60;99.90;;;;;;6210550;23;20012;-86
2023/04/21 06:30:30;;;;;;;0.20;0.20;;;9.20;99.90;;;;;;6211909;23;20449;-84
2023/04/21 06:40:23;;;;;;;0.20;0.20;;;9.80;99.90;;;;;;6209468;23;20039;-84
2023/04/21 06:42:55;;;;;;;0.20;0.20;;;10.00;99.90;;;;;;6211741;23;20016;-85
2023/04/21 06:45:21;;;;;;;0.20;0.20;;;10.30;99.90;;;;;;6210628;23;20025;-85
2023/04/21 06:47:49;;;;;;;0.10;0.10;;;10.20;99.90;;;;;;6219665;23;20017;-87
2023/04/21 06:50:16;;;;;;;0.20;0.20;;;10.20;99.90;;;;;;6221201;23;20020;-86
2023/04/21 06:52:44;;;;;;;0.20;0.20;;;10.30;99.90;;;;;;6215669;23;20408;-85
2023/04/21 06:55:28;;;;;;;0.10;0.10;;;10.40;99.90;;;;;;6243115;23;20016;-86
2023/04/21 06:58:00;;;;;;;0.10;0.10;;;10.40;99.90;;;;;;6217645;23;20039;-86
2023/04/21 07:00:39;;;;;;;0.20;0.20;;;10.50;99.90;;;;;;6216658;23;20095;-86
2023/04/21 07:03:05;;;;;;;0.10;0.10;;;10.50;99.90;;;;;;6217559;23;20020;-87
2023/04/21 07:05:37;;;;;;;0.20;0.20;;;10.60;99.90;;;;;;6218322;23;20392;-88
2023/04/21 07:08:18;;;;;;;0.10;0.10;;;10.70;99.90;;;;;;6216282;23;20494;-87
2023/04/21 07:11:00;;;;;;;0.20;0.20;;;10.00;99.90;;;;;;6217079;23;20099;-87
2023/04/21 07:13:26;;;;;;;0.20;0.20;;;11.40;99.90;;;;;;6244889;23;20376;-86
2023/04/21 07:15:52;;;;;;;0.10;0.10;;;11.00;99.90;;;;;;6254262;22;20023;-85
2023/04/21 07:19:08;;;;;;;0.20;0.20;;;11.00;99.90;;;;;;6247134;22;20293;-86
2023/04/21 07:21:38;;;;;;;0.20;0.20;;;11.00;99.90;;;;;;6273064;22;20069;-86
2023/04/21 07:24:14;;;;;;;0.17;0.17;;;11.10;99.90;;;;;;6247059;22;20108;-86
2023/04/21 07:26:40;;;;;;;0.10;0.10;;;11.20;99.90;;;;;;6266936;22;20015;-86
2023/04/21 07:29:12;;;;;;;0.10;0.10;;;11.20;99.90;;;;;;6261893;22;20429;-82
2023/04/21 07:31:38;;;;;;;0.10;0.10;;;11.30;99.90;;;;;;6277186;22;20015;-85
2023/04/21 07:34:20;;;;;;;0.20;0.20;;;11.80;99.90;;;;;;6274707;22;20034;-85
2023/04/21 07:37:32;;;;;;;0.13;0.13;;;11.40;99.90;;;;;;6273958;22;20015;-84
2023/04/21 07:40:01;;;;;;;0.10;0.10;;;11.50;99.90;;;;;;6275470;22;20070;-84
2023/04/21 07:42:27;;;;;;;0.20;0.20;;;12.10;99.90;;;;;;6275623;22;20501;-84
2023/04/21 07:45:10;;;;;;;0.13;0.13;;;11.70;99.90;;;;;;6246747;22;20094;-84
2023/04/21 07:47:42;;;;;;;0.10;0.10;;;12.00;99.90;;;;;;6257579;22;20007;-85
2023/04/21 07:50:13;;;;;;;0.20;0.20;;;11.90;99.90;;;;;;6274953;22;20033;-85
2023/04/21 07:53:00;;;;;;;;;;;;;;;;;;;;;
2023/04/21 07:55:36;;;;;;;0.10;0.10;;;11.90;99.90;;;;;;6158121;22;20012;-86
2023/04/21 07:58:17;;;;;;;0.20;0.20;;;12.00;99.90;;;;;;6274216;22;20024;-85
2023/04/21 08:01:00;;;;;;;0.10;0.10;;;12.10;99.90;;;;;;6248375;22;20043;-85
2023/04/21 08:03:28;;;;;;;0.10;0.10;;;12.20;99.90;;;;;;6247560;22;20464;-87
2023/04/21 08:09:29;;;;;;;0.10;0.10;;;12.40;99.90;;;;;;6167552;23;20024;-83
2023/04/21 08:12:10;;;;;;;0.10;0.10;;;12.40;99.90;;;;;;6178082;22;20085;-86
2023/04/21 08:15:07;;;;;;;;;;;;;;;;;;;;;
2023/04/21 08:18:00;;;;;;;0.10;0.10;;;12.60;99.90;;;;;;6273951;22;20046;-85
2023/04/21 08:21:02;;;;;;;0.10;0.10;;;12.70;99.90;;;;;;6245433;22;20047;-87
2023/04/21 08:23:29;;;;;;;0.10;0.10;;;12.80;99.90;;;;;;6273495;22;20027;-86
2023/04/21 08:26:08;;;;;;;0.10;0.10;;;13.40;99.90;;;;;;6242687;22;20062;-86
2023/04/21 08:28:34;;;;;;;0.10;0.10;;;12.90;99.90;;;;;;6272445;22;20329;-87
2023/04/21 08:31:00;;;;;;;0.13;0.13;;;13.50;99.90;;;;;;6273853;22;20115;-82
2023/04/21 08:33:26;;;;;;;0.10;0.10;;;13.00;99.90;;;;;;6245276;22;20027;-86
2023/04/21 08:35:58;;;;;;;0.20;0.20;;;12.80;99.90;;;;;;6273557;22;20019;-85
2023/04/21 08:38:27;;;;;;;0.20;0.20;;;13.10;99.90;;;;;;6273922;22;20016;-86
2023/04/21 08:40:54;;;;;;;0.17;0.17;;;13.20;99.90;;;;;;6271378;22;20047;-85
2023/04/21 08:43:20;;;;;;;0.10;0.10;;;13.30;99.90;;;;;;6272434;22;20090;-83
2023/04/21 08:45:46;;;;;;;0.17;0.17;;;13.30;99.90;;;;;;6245538;22;20043;-84
2023/04/21 08:48:31;;;;;;;0.20;0.20;;;13.40;99.90;;;;;;6260922;22;20026;-84
2023/04/21 08:51:01;;;;;;;0.10;0.10;;;13.50;99.90;;;;;;6247645;22;20027;-84
2023/04/21 08:53:50;;;;;;;0.10;0.10;;;13.50;99.90;;;;;;6272245;22;20023;-84
2023/04/21 09:00:11;;;;;;;0.10;0.10;;;13.60;99.90;;;;;;6270581;22;20016;-86
2023/04/21 09:06:27;;;;;;;0.10;0.10;;;13.80;99.90;;;;;;6272809;22;20389;-86
2023/04/21 09:12:32;;;;;;;0.10;0.10;;;13.90;99.90;;;;;;6247375;22;20509;-88
2023/04/21 09:15:04;;;;;;;0.15;0.15;;;14.00;99.90;;;;;;6226100;22;20022;-87
2023/04/21 09:17:54;;;;;;;;;;;;;;;;;;;;;
2023/04/21 09:24:14;;;;;;;0.20;0.20;;;14.30;99.90;;;;;;6272785;22;20332;-85
2023/04/21 09:26:52;;;;;;;0.10;0.10;;;14.40;99.90;;;;;;6257378;22;20043;-85
2023/04/21 09:32:25;;;;;;;0.10;0.10;;;14.00;99.90;;;;;;6293567;22;20034;-84
2023/04/21 09:34:50;;;;;;;0.10;0.10;;;14.70;99.90;;;;;;6292315;22;20019;-87
2023/04/21 09:37:26;;;;;;;;;;;;;;;;;;;;;
2023/04/21 09:40:31;;;;;;;0.20;0.20;;;14.90;99.90;;;;;;6199422;22;20099;-85
2023/04/21 09:43:03;;;;;;;0.10;0.10;;;15.00;99.90;;;;;;6272912;22;20020;-86
2023/04/21 09:45:38;;;;;;;0.10;0.10;;;15.10;99.90;;;;;;6270503;22;20008;-85
2023/04/21 09:48:08;;;;;;;0.10;0.10;;;15.10;99.90;;;;;;6247334;22;20015;-84
2023/04/21 09:50:44;;;;;;;;;;;;;;;;;;;;;
2023/04/21 09:53:32;;;;;;;0.13;0.13;;;15.30;99.90;;;;;;6243090;22;20073;-87
2023/04/21 09:56:13;;;;;;;0.20;0.20;;;15.40;99.90;;;;;;6276790;22;20015;-86
2023/04/21 09:59:00;;;;;;;0.10;0.10;;;15.50;99.90;;;;;;6274540;22;20016;-83
2023/04/21 10:01:26;;;;;;;0.10;0.10;;;15.60;99.90;;;;;;6247125;22;20243;-84
2023/04/21 10:07:02;;;;;;;0.20;0.20;;;15.70;99.90;;;;;;6290752;22;20051;-84
2023/04/21 10:09:54;;;;;;;0.20;0.20;;;15.90;99.90;;;;;;6279221;22;20083;-87
2023/04/21 10:12:46;;;;;;;;;;;15.90;99.90;;;;;;6249127;22;20074;-84
2023/04/21 10:15:43;;;;;;;0.20;0.20;;;16.00;99.90;;;;;;6238875;22;19985;-84
2023/04/21 10:18:20;;;;;;;0.20;0.20;;;15.70;99.90;;;;;;6276838;22;20119;-85
2023/04/21 10:24:06;;;;;;;0.20;0.20;;;16.20;99.90;;;;;;6249684;22;20019;-85
2023/04/21 10:26:34;;;;;;;0.20;0.20;;;16.20;99.90;;;;;;6247860;22;20022;-87
2023/04/21 10:29:39;;;;;;;0.20;0.20;;;16.90;99.90;;;;;;6232826;22;20024;-86
2023/04/21 10:32:07;;;;;;;0.20;0.20;;;16.60;99.90;;;;;;6213743;23;20021;-84
2023/04/21 10:34:58;;;;;;;0.20;0.20;;;16.70;99.90;;;;;;6215103;23;20048;-84
2023/04/21 10:41:00;;;;;;;0.20;0.20;;;16.90;99.80;;;;;;6274672;22;20269;-86
2023/04/21 10:44:17;;;;;;;0.20;0.20;;;16.90;99.70;;;;;;6276673;22;20282;-89
2023/04/21 10:50:54;;;;;;;0.10;0.10;;;17.20;99.50;;;;;;6156630;23;20015;-83
2023/04/21 10:53:57;;;;;;;2.80;0.37;;;17.50;99.50;;;;;;6221404;22;20019;-85
2023/04/21 10:57:30;;;;;;;0.10;0.10;;;17.60;99.10;;;;;;6218537;23;20016;-85
2023/04/21 11:01:17;;;;;;;0.10;0.10;;;17.50;98.70;;;;;;6198627;23;20045;-85
2023/04/21 11:03:44;;;;;;;0.20;0.20;;;18.00;98.30;;;;;;6217825;23;20020;-84
2023/04/21 11:06:29;;;;;;;0.20;0.20;;;18.20;98.10;;;;;;6245045;23;20337;-86
2023/04/21 11:09:03;;;;;;;0.10;0.10;;;18.30;98.00;;;;;;6246371;23;20020;-86
2023/04/21 11:11:39;;;;;;;0.20;0.20;;;18.40;97.30;;;;;;6226980;23;20046;-84
2023/04/21 11:14:08;;;;;;;0.17;0.17;;;18.60;97.10;;;;;;6237171;22;20024;-88
2023/04/21 11:16:48;;;;;;;0.20;0.20;;;18.70;96.60;;;;;;6203728;22;20016;-85
2023/04/21 11:19:24;;;;;;;0.20;0.20;;;18.80;96.20;;;;;;6228378;22;20087;-93
2023/04/21 11:22:40;;;;;;;0.10;0.10;;;19.00;96.10;;;;;;6230062;23;20016;-85
2023/04/21 11:25:49;;;;;;;0.10;0.10;;;19.10;96.20;;;;;;6227526;23;20019;-87
2023/04/21 11:28:21;;;;;;;0.47;0.30;;;19.30;95.60;;;;;;6214708;23;20020;-83
2023/04/21 11:31:03;;;;;;;0.20;0.20;;;19.40;95.60;;;;;;6212497;22;20028;-85
2023/04/21 11:33:29;;;;;;;0.20;0.20;;;19.50;94.90;;;;;;6214830;23;20029;-84
2023/04/21 11:38:39;;;;;;;0.20;0.20;;;19.80;94.90;;;;;;6274290;22;20047;-89
2023/04/21 11:41:41;;;;;;;0.20;0.20;;;20.00;94.30;;;;;;6247686;22;20111;-85
2023/04/21 11:47:59;;;;;;;0.20;0.20;;;20.00;93.40;;;;;;6033812;23;20110;-83
2023/04/21 11:50:35;;;;;;;0.10;0.10;;;20.20;93.40;;;;;;6031725;23;20472;-83
2023/04/21 11:53:04;;;;;;;0.20;0.20;;;20.30;93.20;;;;;;6010615;23;20019;-82
2023/04/21 11:55:29;;;;;;;0.20;0.20;;;20.40;93.40;;;;;;6057777;23;20029;-82
2023/04/21 11:58:20;;;;;;;0.20;0.20;;;20.60;93.40;;;;;;6157383;22;20098;-82
2023/04/21 12:00:55;;;;;;;0.20;0.20;;;20.70;92.90;;;;;;6245863;22;20018;-84
2023/04/21 12:03:31;;;;;;;0.20;0.20;;;20.80;93.10;;;;;;6247769;22;20027;-84
2023/04/21 12:05:57;;;;;;;0.20;0.20;;;21.00;92.90;;;;;;6283030;22;20016;-84
2023/04/21 12:08:22;;;;;;;0.20;0.20;;;21.10;93.10;;;;;;6247576;22;20102;-83
2023/04/21 12:11:01;;;;;;;0.20;0.20;;;21.30;93.00;;;;;;6273095;22;20019;-84
2023/04/21 12:13:40;;;;;;;0.30;0.30;;;21.40;92.90;;;;;;6246268;22;20015;-82
2023/04/21 12:16:06;;;;;;;0.20;0.20;;;21.40;92.40;;;;;;6246039;22;20055;-83
2023/04/21 12:18:47;;;;;;;0.20;0.20;;;21.50;91.80;;;;;;6273361;22;20415;-83
2023/04/21 12:21:27;;;;;;;0.20;0.20;;;21.60;91.60;;;;;;6246742;22;20432;-82
2023/04/21 12:23:53;;;;;;;0.20;0.20;;;21.60;91.90;;;;;;6236498;22;20020;-87
2023/04/21 12:27:18;;;;;;;0.20;0.20;;;21.80;91.90;;;;;;6216981;23;20033;-87
2023/04/21 12:29:44;;;;;;;0.20;0.20;;;21.70;90.50;;;;;;6218497;23;20055;-92
2023/04/21 12:32:20;;;;;;;0.20;0.20;;;21.60;90.10;;;;;;6217133;23;20043;-90
2023/04/21 12:34:46;;;;;;;0.20;0.20;;;21.50;90.10;;;;;;6246082;23;20099;-86
2023/04/21 12:37:30;;;;;;;0.20;0.20;;;21.50;90.70;;;;;;6249708;23;20024;-87
2023/04/21 12:40:28;;;;;;;0.20;0.20;;;21.30;90.20;;;;;;6193467;23;20050;-86
2023/04/21 12:43:03;;;;;;;0.17;0.17;;;21.30;90.30;;;;;;6223819;23;20035;-87
2023/04/21 12:45:44;;;;;;;0.20;0.20;;;21.30;90.20;;;;;;6227423;22;20020;-88
2023/04/21 12:48:13;;;;;;;0.20;0.20;;;21.20;89.60;;;;;;6220114;23;20027;-90
2023/04/21 12:51:04;;;;;;;0.20;0.20;;;21.20;90.00;;;;;;6219220;23;20024;-88
2023/04/21 12:53:42;;;;;;;0.20;0.20;;;21.10;89.70;;;;;;6167859;23;20263;-88
2023/04/21 12:56:09;;;;;;;0.20;0.20;;;;;;;;;;6243352;23;20008;-88
2023/04/21 12:58:35;;;;;;;0.20;0.20;;;21.00;88.70;;;;;;6256431;22;20027;-88
2023/04/21 13:09:26;;;;;;;0.20;0.20;;;21.20;90.40;;;;;;6310434;22;20042;-91
2023/04/21 13:11:58;;;;;;;0.20;0.20;;;21.40;89.30;;;;;;6304572;22;20058;-86
2023/04/21 13:14:33;;;;;;;0.10;0.10;;;21.40;88.70;;;;;;6275977;22;20126;-86
2023/04/21 13:17:39;;;;;;;0.20;0.20;;;21.40;89.20;;;;;;6292634;22;20011;-87
2023/04/21 13:20:08;;;;;;;0.20;0.20;;;21.50;89.10;;;;;;6281743;22;20455;-86
2023/04/21 13:22:34;;;;;;;0.20;0.20;;;;;;;;;;6282823;22;20023;-88
2023/04/21 13:25:29;;;;;;;0.20;0.20;;;21.60;84.40;;;;;;6315997;22;20087;-89
2023/04/21 13:28:33;;;;;;;0.20;0.20;;;21.60;84.80;;;;;;6278894;22;20019;-91
2023/04/21 13:30:58;;;;;;;0.20;0.20;;;21.50;84.00;;;;;;6304645;22;20015;-89
2023/04/21 13:33:24;;;;;;;0.20;0.20;;;21.20;83.20;;;;;;6277289;22;20065;-89
2023/04/21 13:35:56;;;;;;;0.20;0.20;;;21.20;83.30;;;;;;6278462;22;20124;-87
2023/04/21 13:38:32;;;;;;;0.20;0.20;;;21.20;83.50;;;;;;6307233;22;20070;-89
2023/04/21 13:41:17;;;;;;;0.20;0.20;;;21.30;83.20;;;;;;6299640;22;20444;-86
2023/04/21 13:44:04;;;;;;;0.17;0.17;;;21.40;81.80;;;;;;6274579;22;20007;-84
2023/04/21 13:46:30;;;;;;;0.20;0.20;;;21.50;81.70;;;;;;6278934;22;20103;-88
2023/04/21 13:49:09;;;;;;;0.20;0.20;;;21.90;81.60;;;;;;6302690;22;20070;-87
2023/04/21 13:51:35;;;;;;;0.20;0.20;;;21.90;81.90;;;;;;6303911;22;20019;-86
2023/04/21 13:54:06;;;;;;;0.20;0.20;;;22.10;82.30;;;;;;6304666;22;20007;-87
2023/04/21 13:56:38;;;;;;;0.20;0.20;;;22.30;80.50;;;;;;6305054;22;20019;-88
2023/04/21 14:02:55;;;;;;;0.20;0.20;;;22.70;80.90;;;;;;6292694;22;20066;-89
2023/04/21 14:05:39;;;;;;;0.20;0.20;;;22.90;79.70;;;;;;6284799;22;20018;-87
2023/04/21 14:08:29;;;;;;;0.20;0.20;;;23.10;78.20;;;;;;6306708;22;20238;-90
2023/04/21 14:11:13;;;;;;;0.20;0.20;;;23.10;77.70;;;;;;6306543;22;20128;-92
2023/04/21 14:13:39;;;;;;;0.20;0.20;;;;;;;;;;6278476;22;20102;-86
2023/04/21 14:16:19;;;;;;;0.20;0.20;;;23.00;75.50;;;;;;6304170;22;20011;-87
2023/04/21 14:19:00;;;;;;;0.20;0.20;;;22.90;74.60;;;;;;6305265;22;20015;-89
2023/04/21 14:21:26;;;;;;;0.15;0.15;;;22.70;73.90;;;;;;6275684;22;20015;-85
2023/04/21 14:24:04;;;;;;;0.20;0.20;;;22.50;75.70;;;;;;6306514;22;20462;-85
2023/04/21 14:26:58;;;;;;;0.20;0.20;;;22.40;75.40;;;;;;6285916;22;20020;-87
2023/04/21 14:30:09;;;;;;;0.20;0.20;;;22.40;75.60;;;;;;6247563;22;20058;-87
2023/04/21 14:32:57;;;;;;;;;;;22.40;74.30;;;;;;6248452;22;20103;-86
2023/04/21 14:35:22;;;;;;;0.20;0.20;;;22.80;76.90;;;;;;6261015;22;19922;-87
2023/04/21 14:37:48;;;;;;;0.20;0.20;;;23.10;78.10;;;;;;6300801;22;20020;-85
2023/04/21 14:59:21;;;;;;;0.20;0.20;;;25.80;73.80;;;;;;6271743;22;20356;-86
2023/04/21 15:02:03;;;;;;;0.20;0.20;;;25.80;76.00;;;;;;6248278;22;20007;-85
2023/04/21 15:04:41;;;;;;;0.20;0.20;;;26.50;75.80;;;;;;6247800;22;20051;-84
2023/04/21 15:07:33;;;;;;;0.20;0.20;;;27.00;76.30;;;;;;6247491;22;20518;-86
2023/04/21 15:10:31;;;;;;;;;;;;;;;;;;;;;
2023/04/21 15:14:16;;;;;;;0.20;0.20;;;29.30;67.90;;;;;;6214539;23;20383;-85
2023/04/21 15:27:21;;;;;;;0.20;0.20;;;;;;;;;;6275203;22;20400;-90
2023/04/21 15:29:49;;;;;;;0.20;0.20;;;;;;;;;;6245956;22;20079;-89
2023/04/21 15:32:29;;;;;;;0.20;0.20;;;;;;;;;;6247412;22;20023;-87
2023/04/21 15:34:55;;;;;;;0.17;0.17;;;;;;;;;;6245996;22;20015;-87